sensor_id;sensor_type;location;lat;lon;timestamp;P1;durP1;ratioP1;P2;durP2;ratioP2
9720;SDS011;4899;42.644;23.366;2023-04-29T00:02:06;5.73;;;3.40;;
9720;SDS011;4899;42.644;23.366;2023-04-29T00:04:32;6.73;;;3.33;;
9720;SDS011;4899;42.644;23.366;2023-04-29T00:06:58;4.47;;;3.93;;
9720;SDS011;4899;42.644;23.366;2023-04-29T00:09:23;5.27;;;3.70;;
9720;SDS011;4899;42.644;23.366;2023-04-29T00:11:48;4.00;;;3.43;;
9720;SDS011;4899;42.644;23.366;2023-04-29T00:14:14;6.53;;;3.60;;
9720;SDS011;4899;42.644;23.366;2023-04-29T00:16:40;6.47;;;4.03;;
9720;SDS011;4899;42.644;23.366;2023-04-29T00:19:05;4.33;;;3.17;;
9720;SDS011;4899;42.644;23.366;2023-04-29T00:21:31;7.30;;;4.80;;
9720;SDS011;4899;42.644;23.366;2023-04-29T00:23:57;5.00;;;4.33;;
9720;SDS011;4899;42.644;23.366;2023-04-29T00:26:22;7.07;;;4.17;;
9720;SDS011;4899;42.644;23.366;2023-04-29T00:28:48;6.87;;;3.73;;
9720;SDS011;4899;42.644;23.366;2023-04-29T00:31:13;6.30;;;3.90;;
9720;SDS011;4899;42.644;23.366;2023-04-29T00:33:39;5.20;;;3.57;;
9720;SDS011;4899;42.644;23.366;2023-04-29T00:36:05;4.67;;;3.43;;
9720;SDS011;4899;42.644;23.366;2023-04-29T00:38:31;4.30;;;3.20;;
9720;SDS011;4899;42.644;23.366;2023-04-29T00:40:56;8.40;;;3.90;;
9720;SDS011;4899;42.644;23.366;2023-04-29T00:43:22;3.70;;;3.40;;
9720;SDS011;4899;42.644;23.366;2023-04-29T00:45:48;8.57;;;3.90;;
9720;SDS011;4899;42.644;23.366;2023-04-29T00:48:14;7.40;;;5.50;;
9720;SDS011;4899;42.644;23.366;2023-04-29T00:50:40;8.83;;;4.90;;
9720;SDS011;4899;42.644;23.366;2023-04-29T00:53:06;5.40;;;4.77;;
9720;SDS011;4899;42.644;23.366;2023-04-29T00:55:37;10.43;;;6.40;;
9720;SDS011;4899;42.644;23.366;2023-04-29T00:58:03;7.47;;;5.83;;
9720;SDS011;4899;42.644;23.366;2023-04-29T01:00:28;10.57;;;6.83;;
9720;SDS011;4899;42.644;23.366;2023-04-29T01:02:54;7.67;;;6.50;;
9720;SDS011;4899;42.644;23.366;2023-04-29T01:05:21;13.60;;;7.03;;
9720;SDS011;4899;42.644;23.366;2023-04-29T01:10:47;9.73;;;7.23;;
9720;SDS011;4899;42.644;23.366;2023-04-29T01:13:21;10.93;;;7.13;;
9720;SDS011;4899;42.644;23.366;2023-04-29T01:16:10;13.47;;;7.77;;
9720;SDS011;4899;42.644;23.366;2023-04-29T01:18:54;16.33;;;6.73;;
9720;SDS011;4899;42.644;23.366;2023-04-29T01:21:23;10.33;;;6.40;;
9720;SDS011;4899;42.644;23.366;2023-04-29T01:23:49;8.47;;;6.07;;
9720;SDS011;4899;42.644;23.366;2023-04-29T01:26:20;6.83;;;5.97;;
9720;SDS011;4899;42.644;23.366;2023-04-29T01:28:59;9.10;;;5.93;;
9720;SDS011;4899;42.644;23.366;2023-04-29T01:31:45;6.67;;;5.97;;
9720;SDS011;4899;42.644;23.366;2023-04-29T01:37:07;7.73;;;5.93;;
9720;SDS011;4899;42.644;23.366;2023-04-29T01:42:43;8.60;;;6.00;;
9720;SDS011;4899;42.644;23.366;2023-04-29T01:45:11;8.13;;;6.07;;
9720;SDS011;4899;42.644;23.366;2023-04-29T01:47:43;10.80;;;6.10;;
9720;SDS011;4899;42.644;23.366;2023-04-29T01:50:10;8.20;;;6.10;;
9720;SDS011;4899;42.644;23.366;2023-04-29T01:52:36;8.80;;;6.17;;
9720;SDS011;4899;42.644;23.366;2023-04-29T01:55:01;7.13;;;6.43;;
9720;SDS011;4899;42.644;23.366;2023-04-29T01:57:27;8.53;;;6.43;;
9720;SDS011;4899;42.644;23.366;2023-04-29T01:59:53;7.97;;;6.00;;
9720;SDS011;4899;42.644;23.366;2023-04-29T02:02:18;8.90;;;5.53;;
9720;SDS011;4899;42.644;23.366;2023-04-29T02:04:47;7.23;;;5.80;;
9720;SDS011;4899;42.644;23.366;2023-04-29T02:07:13;6.87;;;6.10;;
9720;SDS011;4899;42.644;23.366;2023-04-29T02:09:39;7.80;;;5.93;;
9720;SDS011;4899;42.644;23.366;2023-04-29T02:12:04;8.30;;;6.13;;
9720;SDS011;4899;42.644;23.366;2023-04-29T02:14:30;5.33;;;4.57;;
9720;SDS011;4899;42.644;23.366;2023-04-29T02:16:55;7.77;;;4.60;;
9720;SDS011;4899;42.644;23.366;2023-04-29T02:19:21;5.43;;;4.50;;
9720;SDS011;4899;42.644;23.366;2023-04-29T02:21:46;5.07;;;4.60;;
9720;SDS011;4899;42.644;23.366;2023-04-29T02:24:12;8.57;;;4.40;;
9720;SDS011;4899;42.644;23.366;2023-04-29T02:26:37;8.90;;;4.80;;
9720;SDS011;4899;42.644;23.366;2023-04-29T02:29:02;5.93;;;4.53;;
9720;SDS011;4899;42.644;23.366;2023-04-29T02:31:28;6.53;;;4.93;;
9720;SDS011;4899;42.644;23.366;2023-04-29T02:33:53;8.20;;;4.87;;
9720;SDS011;4899;42.644;23.366;2023-04-29T02:36:19;9.10;;;5.17;;
9720;SDS011;4899;42.644;23.366;2023-04-29T02:38:45;6.50;;;5.10;;
9720;SDS011;4899;42.644;23.366;2023-04-29T02:41:14;7.27;;;5.20;;
9720;SDS011;4899;42.644;23.366;2023-04-29T02:43:41;6.30;;;5.07;;
9720;SDS011;4899;42.644;23.366;2023-04-29T02:46:06;7.80;;;5.97;;
9720;SDS011;4899;42.644;23.366;2023-04-29T02:48:31;8.40;;;5.43;;
9720;SDS011;4899;42.644;23.366;2023-04-29T02:50:57;8.30;;;6.37;;
9720;SDS011;4899;42.644;23.366;2023-04-29T02:53:22;7.43;;;6.60;;
9720;SDS011;4899;42.644;23.366;2023-04-29T02:55:48;7.43;;;6.33;;
9720;SDS011;4899;42.644;23.366;2023-04-29T02:58:13;6.73;;;5.60;;
9720;SDS011;4899;42.644;23.366;2023-04-29T03:00:41;7.27;;;5.60;;
9720;SDS011;4899;42.644;23.366;2023-04-29T03:03:07;8.73;;;6.33;;
9720;SDS011;4899;42.644;23.366;2023-04-29T03:05:32;10.20;;;6.20;;
9720;SDS011;4899;42.644;23.366;2023-04-29T03:07:58;8.30;;;6.77;;
9720;SDS011;4899;42.644;23.366;2023-04-29T03:10:24;9.53;;;6.53;;
9720;SDS011;4899;42.644;23.366;2023-04-29T03:12:49;8.00;;;6.37;;
9720;SDS011;4899;42.644;23.366;2023-04-29T03:15:14;8.77;;;6.70;;
9720;SDS011;4899;42.644;23.366;2023-04-29T03:17:41;10.37;;;6.67;;
9720;SDS011;4899;42.644;23.366;2023-04-29T03:20:06;8.03;;;6.73;;
9720;SDS011;4899;42.644;23.366;2023-04-29T03:22:34;8.33;;;7.00;;
9720;SDS011;4899;42.644;23.366;2023-04-29T03:25:00;8.00;;;7.17;;
9720;SDS011;4899;42.644;23.366;2023-04-29T03:27:25;8.13;;;7.20;;
9720;SDS011;4899;42.644;23.366;2023-04-29T03:29:51;7.93;;;6.90;;
9720;SDS011;4899;42.644;23.366;2023-04-29T03:32:16;9.93;;;7.70;;
9720;SDS011;4899;42.644;23.366;2023-04-29T03:34:42;11.43;;;8.20;;
9720;SDS011;4899;42.644;23.366;2023-04-29T03:37:07;8.80;;;7.63;;
9720;SDS011;4899;42.644;23.366;2023-04-29T03:39:33;10.97;;;7.90;;
9720;SDS011;4899;42.644;23.366;2023-04-29T03:41:58;12.53;;;7.87;;
9720;SDS011;4899;42.644;23.366;2023-04-29T03:44:24;11.17;;;8.37;;
9720;SDS011;4899;42.644;23.366;2023-04-29T03:46:50;10.03;;;7.90;;
9720;SDS011;4899;42.644;23.366;2023-04-29T03:49:15;12.67;;;7.50;;
9720;SDS011;4899;42.644;23.366;2023-04-29T03:51:41;10.87;;;7.67;;
9720;SDS011;4899;42.644;23.366;2023-04-29T03:54:08;15.07;;;8.53;;
9720;SDS011;4899;42.644;23.366;2023-04-29T03:56:33;13.93;;;7.63;;
9720;SDS011;4899;42.644;23.366;2023-04-29T03:58:59;8.93;;;7.57;;
9720;SDS011;4899;42.644;23.366;2023-04-29T04:01:25;11.70;;;8.00;;
9720;SDS011;4899;42.644;23.366;2023-04-29T04:03:50;9.73;;;7.77;;
9720;SDS011;4899;42.644;23.366;2023-04-29T04:06:16;12.13;;;7.60;;
9720;SDS011;4899;42.644;23.366;2023-04-29T04:08:41;8.30;;;7.47;;
9720;SDS011;4899;42.644;23.366;2023-04-29T04:11:07;9.13;;;7.50;;
9720;SDS011;4899;42.644;23.366;2023-04-29T04:13:33;10.37;;;7.33;;
9720;SDS011;4899;42.644;23.366;2023-04-29T04:15:59;7.60;;;6.13;;
9720;SDS011;4899;42.644;23.366;2023-04-29T04:18:26;7.07;;;5.80;;
9720;SDS011;4899;42.644;23.366;2023-04-29T04:20:51;12.97;;;5.93;;
9720;SDS011;4899;42.644;23.366;2023-04-29T04:23:18;8.27;;;5.90;;
9720;SDS011;4899;42.644;23.366;2023-04-29T04:25:44;7.30;;;5.83;;
9720;SDS011;4899;42.644;23.366;2023-04-29T04:28:10;7.67;;;5.80;;
9720;SDS011;4899;42.644;23.366;2023-04-29T04:30:36;9.63;;;5.87;;
9720;SDS011;4899;42.644;23.366;2023-04-29T04:33:01;8.70;;;5.13;;
9720;SDS011;4899;42.644;23.366;2023-04-29T04:35:27;7.57;;;5.50;;
9720;SDS011;4899;42.644;23.366;2023-04-29T04:37:52;8.23;;;5.53;;
9720;SDS011;4899;42.644;23.366;2023-04-29T04:40:17;8.13;;;4.97;;
9720;SDS011;4899;42.644;23.366;2023-04-29T04:42:43;7.47;;;5.23;;
9720;SDS011;4899;42.644;23.366;2023-04-29T04:45:08;9.43;;;5.90;;
9720;SDS011;4899;42.644;23.366;2023-04-29T04:47:35;8.40;;;6.47;;
9720;SDS011;4899;42.644;23.366;2023-04-29T04:50:01;7.97;;;5.47;;
9720;SDS011;4899;42.644;23.366;2023-04-29T04:52:28;10.20;;;6.10;;
9720;SDS011;4899;42.644;23.366;2023-04-29T04:54:53;10.50;;;6.17;;
9720;SDS011;4899;42.644;23.366;2023-04-29T04:57:19;14.47;;;7.03;;
9720;SDS011;4899;42.644;23.366;2023-04-29T04:59:44;38.30;;;8.50;;
9720;SDS011;4899;42.644;23.366;2023-04-29T05:02:10;12.97;;;7.17;;
9720;SDS011;4899;42.644;23.366;2023-04-29T05:04:35;10.77;;;8.13;;
9720;SDS011;4899;42.644;23.366;2023-04-29T05:07:01;13.30;;;7.10;;
9720;SDS011;4899;42.644;23.366;2023-04-29T05:09:27;10.40;;;5.57;;
9720;SDS011;4899;42.644;23.366;2023-04-29T05:11:53;11.90;;;6.40;;
9720;SDS011;4899;42.644;23.366;2023-04-29T05:14:18;8.43;;;5.70;;
9720;SDS011;4899;42.644;23.366;2023-04-29T05:16:43;6.43;;;5.30;;
9720;SDS011;4899;42.644;23.366;2023-04-29T05:19:10;10.00;;;6.67;;
9720;SDS011;4899;42.644;23.366;2023-04-29T05:21:36;9.37;;;6.70;;
9720;SDS011;4899;42.644;23.366;2023-04-29T05:24:02;7.63;;;6.67;;
9720;SDS011;4899;42.644;23.366;2023-04-29T05:26:27;8.30;;;5.63;;
9720;SDS011;4899;42.644;23.366;2023-04-29T05:28:53;11.10;;;5.67;;
9720;SDS011;4899;42.644;23.366;2023-04-29T05:31:19;9.27;;;5.60;;
9720;SDS011;4899;42.644;23.366;2023-04-29T05:33:45;7.00;;;4.90;;
9720;SDS011;4899;42.644;23.366;2023-04-29T05:36:10;6.77;;;4.17;;
9720;SDS011;4899;42.644;23.366;2023-04-29T05:38:36;5.90;;;5.40;;
9720;SDS011;4899;42.644;23.366;2023-04-29T05:41:01;5.73;;;4.50;;
9720;SDS011;4899;42.644;23.366;2023-04-29T05:43:27;6.87;;;4.63;;
9720;SDS011;4899;42.644;23.366;2023-04-29T05:45:53;7.63;;;4.20;;
9720;SDS011;4899;42.644;23.366;2023-04-29T05:48:19;7.07;;;4.40;;
9720;SDS011;4899;42.644;23.366;2023-04-29T05:50:45;6.80;;;4.00;;
9720;SDS011;4899;42.644;23.366;2023-04-29T05:53:12;6.50;;;4.10;;
9720;SDS011;4899;42.644;23.366;2023-04-29T05:55:38;5.83;;;4.10;;
9720;SDS011;4899;42.644;23.366;2023-04-29T05:58:03;7.90;;;4.50;;
9720;SDS011;4899;42.644;23.366;2023-04-29T06:00:29;4.93;;;4.43;;
9720;SDS011;4899;42.644;23.366;2023-04-29T06:02:55;6.47;;;4.23;;
9720;SDS011;4899;42.644;23.366;2023-04-29T06:05:21;4.23;;;3.90;;
9720;SDS011;4899;42.644;23.366;2023-04-29T06:07:47;4.77;;;3.73;;
9720;SDS011;4899;42.644;23.366;2023-04-29T06:10:12;5.47;;;4.03;;
9720;SDS011;4899;42.644;23.366;2023-04-29T06:12:39;6.03;;;4.80;;
9720;SDS011;4899;42.644;23.366;2023-04-29T06:15:04;5.33;;;4.17;;
9720;SDS011;4899;42.644;23.366;2023-04-29T06:17:30;4.77;;;4.33;;
9720;SDS011;4899;42.644;23.366;2023-04-29T06:19:56;10.10;;;4.30;;
9720;SDS011;4899;42.644;23.366;2023-04-29T06:22:21;4.47;;;4.07;;
9720;SDS011;4899;42.644;23.366;2023-04-29T06:24:53;9.80;;;4.97;;
9720;SDS011;4899;42.644;23.366;2023-04-29T06:27:18;5.57;;;4.47;;
9720;SDS011;4899;42.644;23.366;2023-04-29T06:29:43;4.93;;;4.40;;
9720;SDS011;4899;42.644;23.366;2023-04-29T06:32:09;5.73;;;5.00;;
9720;SDS011;4899;42.644;23.366;2023-04-29T06:34:34;7.07;;;6.37;;
9720;SDS011;4899;42.644;23.366;2023-04-29T06:37:01;6.80;;;6.17;;
9720;SDS011;4899;42.644;23.366;2023-04-29T06:39:27;6.67;;;5.87;;
9720;SDS011;4899;42.644;23.366;2023-04-29T06:41:52;7.13;;;5.97;;
9720;SDS011;4899;42.644;23.366;2023-04-29T06:44:18;7.03;;;6.33;;
9720;SDS011;4899;42.644;23.366;2023-04-29T06:46:43;6.40;;;5.80;;
9720;SDS011;4899;42.644;23.366;2023-04-29T06:49:10;7.93;;;5.67;;
9720;SDS011;4899;42.644;23.366;2023-04-29T06:51:36;9.60;;;6.30;;
9720;SDS011;4899;42.644;23.366;2023-04-29T06:54:02;8.07;;;5.43;;
9720;SDS011;4899;42.644;23.366;2023-04-29T06:56:27;6.30;;;5.70;;
9720;SDS011;4899;42.644;23.366;2023-04-29T06:58:53;6.67;;;6.00;;
9720;SDS011;4899;42.644;23.366;2023-04-29T07:01:19;7.60;;;6.13;;
9720;SDS011;4899;42.644;23.366;2023-04-29T07:03:44;8.10;;;6.60;;
9720;SDS011;4899;42.644;23.366;2023-04-29T07:06:09;10.07;;;6.30;;
9720;SDS011;4899;42.644;23.366;2023-04-29T07:08:35;8.70;;;6.37;;
9720;SDS011;4899;42.644;23.366;2023-04-29T07:11:00;8.93;;;6.10;;
9720;SDS011;4899;42.644;23.366;2023-04-29T07:13:26;6.97;;;6.33;;
9720;SDS011;4899;42.644;23.366;2023-04-29T07:15:51;12.30;;;6.20;;
9720;SDS011;4899;42.644;23.366;2023-04-29T07:18:16;7.23;;;6.13;;
9720;SDS011;4899;42.644;23.366;2023-04-29T07:20:42;8.23;;;6.00;;
9720;SDS011;4899;42.644;23.366;2023-04-29T07:23:08;7.27;;;5.90;;
9720;SDS011;4899;42.644;23.366;2023-04-29T07:25:34;8.43;;;5.93;;
9720;SDS011;4899;42.644;23.366;2023-04-29T07:28:00;8.53;;;6.47;;
9720;SDS011;4899;42.644;23.366;2023-04-29T07:30:25;7.90;;;6.20;;
9720;SDS011;4899;42.644;23.366;2023-04-29T07:32:50;9.07;;;6.70;;
9720;SDS011;4899;42.644;23.366;2023-04-29T07:35:16;8.43;;;6.87;;
9720;SDS011;4899;42.644;23.366;2023-04-29T07:37:42;8.33;;;5.80;;
9720;SDS011;4899;42.644;23.366;2023-04-29T07:40:08;7.67;;;6.07;;
9720;SDS011;4899;42.644;23.366;2023-04-29T07:42:34;8.00;;;5.83;;
9720;SDS011;4899;42.644;23.366;2023-04-29T07:44:59;8.37;;;5.93;;
9720;SDS011;4899;42.644;23.366;2023-04-29T07:47:25;7.20;;;5.80;;
9720;SDS011;4899;42.644;23.366;2023-04-29T07:49:52;7.23;;;5.23;;
9720;SDS011;4899;42.644;23.366;2023-04-29T07:52:18;5.37;;;4.87;;
9720;SDS011;4899;42.644;23.366;2023-04-29T07:54:43;7.40;;;6.00;;
9720;SDS011;4899;42.644;23.366;2023-04-29T07:57:09;9.23;;;6.07;;
9720;SDS011;4899;42.644;23.366;2023-04-29T07:59:34;7.53;;;5.03;;
9720;SDS011;4899;42.644;23.366;2023-04-29T08:01:59;7.13;;;6.00;;
9720;SDS011;4899;42.644;23.366;2023-04-29T08:04:25;6.80;;;6.10;;
9720;SDS011;4899;42.644;23.366;2023-04-29T08:06:50;7.07;;;5.87;;
9720;SDS011;4899;42.644;23.366;2023-04-29T08:09:16;4.97;;;4.47;;
9720;SDS011;4899;42.644;23.366;2023-04-29T08:11:42;4.00;;;3.47;;
9720;SDS011;4899;42.644;23.366;2023-04-29T08:14:08;4.03;;;3.67;;
9720;SDS011;4899;42.644;23.366;2023-04-29T08:16:34;5.23;;;4.77;;
9720;SDS011;4899;42.644;23.366;2023-04-29T08:18:59;6.30;;;4.97;;
9720;SDS011;4899;42.644;23.366;2023-04-29T08:21:25;6.57;;;4.73;;
9720;SDS011;4899;42.644;23.366;2023-04-29T08:23:51;7.90;;;4.57;;
9720;SDS011;4899;42.644;23.366;2023-04-29T08:26:17;6.43;;;5.07;;
9720;SDS011;4899;42.644;23.366;2023-04-29T08:28:43;6.87;;;5.23;;
9720;SDS011;4899;42.644;23.366;2023-04-29T08:31:14;10.23;;;4.27;;
9720;SDS011;4899;42.644;23.366;2023-04-29T08:33:41;5.10;;;4.70;;
9720;SDS011;4899;42.644;23.366;2023-04-29T08:36:08;8.60;;;4.23;;
9720;SDS011;4899;42.644;23.366;2023-04-29T08:38:33;6.97;;;4.00;;
9720;SDS011;4899;42.644;23.366;2023-04-29T08:40:58;5.30;;;3.73;;
9720;SDS011;4899;42.644;23.366;2023-04-29T08:43:25;3.93;;;3.07;;
9720;SDS011;4899;42.644;23.366;2023-04-29T08:45:51;4.10;;;3.63;;
9720;SDS011;4899;42.644;23.366;2023-04-29T08:48:17;5.20;;;3.77;;
9720;SDS011;4899;42.644;23.366;2023-04-29T08:50:43;5.23;;;3.93;;
9720;SDS011;4899;42.644;23.366;2023-04-29T08:53:10;5.77;;;4.37;;
9720;SDS011;4899;42.644;23.366;2023-04-29T08:55:40;4.97;;;4.47;;
9720;SDS011;4899;42.644;23.366;2023-04-29T08:58:07;9.13;;;5.40;;
9720;SDS011;4899;42.644;23.366;2023-04-29T09:00:34;6.23;;;3.80;;
9720;SDS011;4899;42.644;23.366;2023-04-29T09:03:10;5.43;;;3.00;;
9720;SDS011;4899;42.644;23.366;2023-04-29T09:05:39;4.50;;;3.07;;
9720;SDS011;4899;42.644;23.366;2023-04-29T09:08:08;5.07;;;3.27;;
9720;SDS011;4899;42.644;23.366;2023-04-29T09:10:36;4.30;;;3.33;;
9720;SDS011;4899;42.644;23.366;2023-04-29T09:13:03;4.80;;;2.80;;
9720;SDS011;4899;42.644;23.366;2023-04-29T09:15:35;5.70;;;3.47;;
9720;SDS011;4899;42.644;23.366;2023-04-29T09:21:23;3.40;;;3.10;;
9720;SDS011;4899;42.644;23.366;2023-04-29T09:23:55;6.00;;;3.40;;
9720;SDS011;4899;42.644;23.366;2023-04-29T09:26:25;3.93;;;2.77;;
9720;SDS011;4899;42.644;23.366;2023-04-29T09:31:37;4.33;;;3.00;;
9720;SDS011;4899;42.644;23.366;2023-04-29T09:34:04;5.07;;;2.90;;
9720;SDS011;4899;42.644;23.366;2023-04-29T09:36:36;4.40;;;3.07;;
9720;SDS011;4899;42.644;23.366;2023-04-29T09:39:03;6.37;;;3.00;;
9720;SDS011;4899;42.644;23.366;2023-04-29T09:41:34;2.77;;;2.43;;
9720;SDS011;4899;42.644;23.366;2023-04-29T09:44:03;2.87;;;2.67;;
9720;SDS011;4899;42.644;23.366;2023-04-29T09:46:31;4.37;;;2.80;;
9720;SDS011;4899;42.644;23.366;2023-04-29T09:48:57;5.30;;;2.90;;
9720;SDS011;4899;42.644;23.366;2023-04-29T09:51:23;3.40;;;3.10;;
9720;SDS011;4899;42.644;23.366;2023-04-29T09:53:48;4.37;;;3.43;;
9720;SDS011;4899;42.644;23.366;2023-04-29T09:56:14;5.33;;;3.77;;
9720;SDS011;4899;42.644;23.366;2023-04-29T09:58:40;5.37;;;3.40;;
9720;SDS011;4899;42.644;23.366;2023-04-29T10:01:06;5.47;;;3.40;;
9720;SDS011;4899;42.644;23.366;2023-04-29T10:03:35;4.60;;;3.70;;
9720;SDS011;4899;42.644;23.366;2023-04-29T10:06:03;5.00;;;4.20;;
9720;SDS011;4899;42.644;23.366;2023-04-29T10:08:29;4.23;;;3.87;;
9720;SDS011;4899;42.644;23.366;2023-04-29T10:11:00;4.67;;;4.03;;
9720;SDS011;4899;42.644;23.366;2023-04-29T10:13:27;6.07;;;4.33;;
9720;SDS011;4899;42.644;23.366;2023-04-29T10:18:40;8.80;;;5.20;;
9720;SDS011;4899;42.644;23.366;2023-04-29T10:21:08;7.10;;;4.77;;
9720;SDS011;4899;42.644;23.366;2023-04-29T10:23:36;6.10;;;4.53;;
9720;SDS011;4899;42.644;23.366;2023-04-29T10:26:01;4.90;;;3.83;;
9720;SDS011;4899;42.644;23.366;2023-04-29T10:28:31;4.83;;;4.20;;
9720;SDS011;4899;42.644;23.366;2023-04-29T10:31:00;7.17;;;4.70;;
9720;SDS011;4899;42.644;23.366;2023-04-29T10:33:29;5.60;;;4.90;;
9720;SDS011;4899;42.644;23.366;2023-04-29T10:35:58;5.13;;;4.27;;
9720;SDS011;4899;42.644;23.366;2023-04-29T10:41:13;7.50;;;5.07;;
9720;SDS011;4899;42.644;23.366;2023-04-29T10:43:44;6.30;;;4.40;;
9720;SDS011;4899;42.644;23.366;2023-04-29T10:48:46;6.07;;;4.40;;
9720;SDS011;4899;42.644;23.366;2023-04-29T10:56:50;4.80;;;4.23;;
9720;SDS011;4899;42.644;23.366;2023-04-29T11:01:50;6.37;;;3.80;;
9720;SDS011;4899;42.644;23.366;2023-04-29T11:04:17;5.13;;;3.93;;
9720;SDS011;4899;42.644;23.366;2023-04-29T11:06:51;4.03;;;3.23;;
9720;SDS011;4899;42.644;23.366;2023-04-29T11:09:24;6.47;;;3.70;;
9720;SDS011;4899;42.644;23.366;2023-04-29T11:14:26;3.30;;;2.43;;
9720;SDS011;4899;42.644;23.366;2023-04-29T11:17:12;5.23;;;3.17;;
9720;SDS011;4899;42.644;23.366;2023-04-29T11:19:42;4.93;;;3.50;;
9720;SDS011;4899;42.644;23.366;2023-04-29T11:27:20;2.07;;;1.50;;
9720;SDS011;4899;42.644;23.366;2023-04-29T11:29:49;3.10;;;1.80;;
9720;SDS011;4899;42.644;23.366;2023-04-29T11:32:15;2.60;;;2.20;;
9720;SDS011;4899;42.644;23.366;2023-04-29T11:34:45;3.43;;;2.40;;
9720;SDS011;4899;42.644;23.366;2023-04-29T11:37:11;3.13;;;2.40;;
9720;SDS011;4899;42.644;23.366;2023-04-29T11:39:36;2.93;;;2.00;;
9720;SDS011;4899;42.644;23.366;2023-04-29T11:42:05;3.00;;;2.23;;
9720;SDS011;4899;42.644;23.366;2023-04-29T11:44:34;5.93;;;1.97;;
9720;SDS011;4899;42.644;23.366;2023-04-29T11:47:03;2.60;;;2.23;;
9720;SDS011;4899;42.644;23.366;2023-04-29T11:49:34;2.83;;;2.20;;
9720;SDS011;4899;42.644;23.366;2023-04-29T11:52:01;3.63;;;2.20;;
9720;SDS011;4899;42.644;23.366;2023-04-29T11:54:27;2.23;;;1.93;;
9720;SDS011;4899;42.644;23.366;2023-04-29T11:56:53;2.30;;;1.67;;
9720;SDS011;4899;42.644;23.366;2023-04-29T11:59:20;3.70;;;2.07;;
9720;SDS011;4899;42.644;23.366;2023-04-29T12:01:47;2.33;;;1.63;;
9720;SDS011;4899;42.644;23.366;2023-04-29T12:04:13;5.23;;;1.70;;
9720;SDS011;4899;42.644;23.366;2023-04-29T12:06:38;3.40;;;1.73;;
9720;SDS011;4899;42.644;23.366;2023-04-29T12:09:05;4.30;;;2.10;;
9720;SDS011;4899;42.644;23.366;2023-04-29T12:11:31;3.40;;;1.70;;
9720;SDS011;4899;42.644;23.366;2023-04-29T12:13:56;3.97;;;1.70;;
9720;SDS011;4899;42.644;23.366;2023-04-29T12:16:22;4.20;;;1.87;;
9720;SDS011;4899;42.644;23.366;2023-04-29T12:18:49;3.07;;;1.80;;
9720;SDS011;4899;42.644;23.366;2023-04-29T12:21:15;2.40;;;1.70;;
9720;SDS011;4899;42.644;23.366;2023-04-29T12:23:41;1.70;;;1.53;;
9720;SDS011;4899;42.644;23.366;2023-04-29T12:26:07;2.40;;;1.63;;
9720;SDS011;4899;42.644;23.366;2023-04-29T12:28:33;5.83;;;2.03;;
9720;SDS011;4899;42.644;23.366;2023-04-29T12:30:59;3.10;;;1.60;;
9720;SDS011;4899;42.644;23.366;2023-04-29T12:33:26;2.17;;;1.90;;
9720;SDS011;4899;42.644;23.366;2023-04-29T12:35:54;2.40;;;1.67;;
9720;SDS011;4899;42.644;23.366;2023-04-29T12:40:53;3.67;;;1.93;;
9720;SDS011;4899;42.644;23.366;2023-04-29T12:43:31;2.50;;;1.80;;
9720;SDS011;4899;42.644;23.366;2023-04-29T12:46:07;3.40;;;2.03;;
9720;SDS011;4899;42.644;23.366;2023-04-29T12:48:35;3.20;;;2.03;;
9720;SDS011;4899;42.644;23.366;2023-04-29T12:51:10;2.60;;;1.57;;
9720;SDS011;4899;42.644;23.366;2023-04-29T12:53:36;1.80;;;1.70;;
9720;SDS011;4899;42.644;23.366;2023-04-29T12:56:01;4.67;;;1.57;;
9720;SDS011;4899;42.644;23.366;2023-04-29T12:58:27;4.77;;;1.43;;
9720;SDS011;4899;42.644;23.366;2023-04-29T13:00:54;2.20;;;1.70;;
9720;SDS011;4899;42.644;23.366;2023-04-29T13:03:20;3.27;;;1.60;;
9720;SDS011;4899;42.644;23.366;2023-04-29T13:05:45;3.47;;;1.80;;
9720;SDS011;4899;42.644;23.366;2023-04-29T13:08:12;4.77;;;1.80;;
9720;SDS011;4899;42.644;23.366;2023-04-29T13:10:39;2.50;;;1.50;;
9720;SDS011;4899;42.644;23.366;2023-04-29T13:13:04;1.97;;;1.77;;
9720;SDS011;4899;42.644;23.366;2023-04-29T13:15:29;2.27;;;1.60;;
9720;SDS011;4899;42.644;23.366;2023-04-29T13:17:57;2.77;;;1.60;;
9720;SDS011;4899;42.644;23.366;2023-04-29T13:20:22;1.67;;;1.57;;
9720;SDS011;4899;42.644;23.366;2023-04-29T13:22:48;2.63;;;1.90;;
9720;SDS011;4899;42.644;23.366;2023-04-29T13:25:13;1.33;;;1.23;;
9720;SDS011;4899;42.644;23.366;2023-04-29T13:27:40;4.83;;;1.70;;
9720;SDS011;4899;42.644;23.366;2023-04-29T13:30:05;2.53;;;1.60;;
9720;SDS011;4899;42.644;23.366;2023-04-29T13:32:31;2.83;;;1.50;;
9720;SDS011;4899;42.644;23.366;2023-04-29T13:34:57;1.63;;;1.20;;
9720;SDS011;4899;42.644;23.366;2023-04-29T13:37:22;1.90;;;1.40;;
9720;SDS011;4899;42.644;23.366;2023-04-29T13:39:48;1.60;;;1.50;;
9720;SDS011;4899;42.644;23.366;2023-04-29T13:42:13;4.00;;;1.67;;
9720;SDS011;4899;42.644;23.366;2023-04-29T13:44:39;2.47;;;1.33;;
9720;SDS011;4899;42.644;23.366;2023-04-29T13:47:11;1.90;;;1.50;;
9720;SDS011;4899;42.644;23.366;2023-04-29T13:49:39;2.00;;;1.23;;
9720;SDS011;4899;42.644;23.366;2023-04-29T13:52:05;3.03;;;1.20;;
9720;SDS011;4899;42.644;23.366;2023-04-29T13:54:31;3.17;;;1.43;;
9720;SDS011;4899;42.644;23.366;2023-04-29T13:56:57;2.60;;;2.33;;
9720;SDS011;4899;42.644;23.366;2023-04-29T13:59:23;2.23;;;1.50;;
9720;SDS011;4899;42.644;23.366;2023-04-29T14:01:48;1.30;;;1.20;;
9720;SDS011;4899;42.644;23.366;2023-04-29T14:04:15;2.03;;;1.60;;
9720;SDS011;4899;42.644;23.366;2023-04-29T14:06:41;2.10;;;1.60;;
9720;SDS011;4899;42.644;23.366;2023-04-29T14:09:07;1.50;;;1.40;;
9720;SDS011;4899;42.644;23.366;2023-04-29T14:11:33;1.23;;;1.23;;
9720;SDS011;4899;42.644;23.366;2023-04-29T14:14:00;1.97;;;1.53;;
9720;SDS011;4899;42.644;23.366;2023-04-29T14:16:26;2.03;;;1.60;;
9720;SDS011;4899;42.644;23.366;2023-04-29T14:18:52;1.63;;;1.53;;
9720;SDS011;4899;42.644;23.366;2023-04-29T14:21:18;2.40;;;1.63;;
9720;SDS011;4899;42.644;23.366;2023-04-29T14:23:46;2.10;;;1.67;;
9720;SDS011;4899;42.644;23.366;2023-04-29T14:26:12;2.00;;;1.80;;
9720;SDS011;4899;42.644;23.366;2023-04-29T14:28:38;1.77;;;1.60;;
9720;SDS011;4899;42.644;23.366;2023-04-29T14:31:03;2.70;;;1.60;;
9720;SDS011;4899;42.644;23.366;2023-04-29T14:33:28;2.17;;;1.70;;
9720;SDS011;4899;42.644;23.366;2023-04-29T14:35:54;2.93;;;1.80;;
9720;SDS011;4899;42.644;23.366;2023-04-29T14:38:19;2.73;;;2.20;;
9720;SDS011;4899;42.644;23.366;2023-04-29T14:40:45;1.67;;;1.43;;
9720;SDS011;4899;42.644;23.366;2023-04-29T14:43:11;1.53;;;1.43;;
9720;SDS011;4899;42.644;23.366;2023-04-29T14:45:36;2.50;;;2.30;;
9720;SDS011;4899;42.644;23.366;2023-04-29T14:48:02;2.00;;;1.90;;
9720;SDS011;4899;42.644;23.366;2023-04-29T14:50:28;2.23;;;2.10;;
9720;SDS011;4899;42.644;23.366;2023-04-29T14:52:54;2.47;;;2.27;;
9720;SDS011;4899;42.644;23.366;2023-04-29T14:55:21;2.17;;;2.00;;
9720;SDS011;4899;42.644;23.366;2023-04-29T14:57:47;3.23;;;1.93;;
9720;SDS011;4899;42.644;23.366;2023-04-29T15:00:12;2.20;;;2.00;;
9720;SDS011;4899;42.644;23.366;2023-04-29T15:02:39;3.67;;;2.30;;
9720;SDS011;4899;42.644;23.366;2023-04-29T15:05:04;2.20;;;2.10;;
9720;SDS011;4899;42.644;23.366;2023-04-29T15:07:30;2.43;;;2.23;;
9720;SDS011;4899;42.644;23.366;2023-04-29T15:09:57;3.20;;;2.73;;
9720;SDS011;4899;42.644;23.366;2023-04-29T15:12:22;2.63;;;2.20;;
9720;SDS011;4899;42.644;23.366;2023-04-29T15:14:48;3.40;;;2.30;;
9720;SDS011;4899;42.644;23.366;2023-04-29T15:17:13;2.80;;;2.50;;
9720;SDS011;4899;42.644;23.366;2023-04-29T15:19:39;4.50;;;3.00;;
9720;SDS011;4899;42.644;23.366;2023-04-29T15:22:04;5.20;;;2.50;;
9720;SDS011;4899;42.644;23.366;2023-04-29T15:24:29;3.77;;;3.03;;
9720;SDS011;4899;42.644;23.366;2023-04-29T15:26:55;4.63;;;2.70;;
9720;SDS011;4899;42.644;23.366;2023-04-29T15:29:20;3.50;;;2.90;;
9720;SDS011;4899;42.644;23.366;2023-04-29T15:31:46;3.00;;;2.70;;
9720;SDS011;4899;42.644;23.366;2023-04-29T15:34:11;4.90;;;2.33;;
9720;SDS011;4899;42.644;23.366;2023-04-29T15:36:37;3.70;;;2.60;;
9720;SDS011;4899;42.644;23.366;2023-04-29T15:39:02;2.83;;;2.30;;